Time;durP1;ratioP1;P1;durP2;ratioP2;P2;SDS_P1;SDS_P2;PMS_P1;PMS_P2;Temp;Humidity;BMP_temperature;BMP_pressure;BME280_temperature;BME280_humidity;BME280_pressure;Samples;Min_cycle;Max_cycle;Signal;HPM_P1;HPM_P2
2022/09/03 00:00:51;;;;;;;;;;;24.60;40.40;;;;;;5108847;28;20566;-63
2022/09/03 00:03:17;;;;;;;;;;;24.60;40.60;;;;;;5109456;28;20006;-62
2022/09/03 00:06:01;;;;;;;;;;;24.60;40.50;;;;;;5092029;28;19968;-62
2022/09/03 00:08:32;;;;;;;;;;;24.60;40.50;;;;;;5074964;28;19912;-62
2022/09/03 00:11:05;;;;;;;;;;;24.60;40.50;;;;;;5100839;28;20231;-62
2022/09/03 00:13:35;;;;;;;;;;;24.60;40.50;;;;;;5090990;28;20045;-62
2022/09/03 00:16:02;;;;;;;;;;;24.60;40.60;;;;;;5093212;28;20393;-62
2022/09/03 00:18:29;;;;;;;;;;;24.50;40.70;;;;;;5092303;28;19978;-62
2022/09/03 00:20:58;;;;;;;;;;;24.50;40.60;;;;;;5075920;28;20595;-62
2022/09/03 00:23:25;;;;;;;;;;;24.50;40.60;;;;;;5092030;28;19920;-62
2022/09/03 00:26:00;;;;;;;;;;;24.50;40.50;;;;;;5091680;28;20436;-62
2022/09/03 00:28:28;;;;;;;;;;;24.50;40.60;;;;;;5105371;28;19915;-62
2022/09/03 00:31:11;;;;;;;;;;;24.70;40.40;;;;;;5092298;28;19970;-62
2022/09/03 00:33:37;;;;;;;;;;;24.60;40.70;;;;;;5093600;28;20400;-62
2022/09/03 00:36:11;;;;;;;;;;;24.60;40.40;;;;;;5092085;28;19919;-62
2022/09/03 00:38:36;;;;;;;;;;;24.60;40.40;;;;;;5091397;28;19956;-62
2022/09/03 00:41:07;;;;;;;;;;;24.60;40.60;;;;;;5110123;28;21888;-62
2022/09/03 00:43:33;;;;;;;;;;;24.50;40.50;;;;;;5103201;28;19919;-62
2022/09/03 00:46:07;;;;;;;;;;;24.60;40.50;;;;;;5108916;28;19923;-62
2022/09/03 00:48:38;;;;;;;;;;;24.60;40.60;;;;;;5093255;28;19908;-62
2022/09/03 00:51:17;;;;;;;;;;;24.60;40.30;;;;;;5091585;28;19912;-62
2022/09/03 00:53:43;;;;;;;;;;;24.60;40.40;;;;;;5093131;28;19908;-62
2022/09/03 00:56:27;;;;;;;;;;;24.60;40.30;;;;;;5109319;28;20406;-62
2022/09/03 00:58:55;;;;;;;;;;;24.50;40.40;;;;;;5111131;28;19961;-62
2022/09/03 01:01:20;;;;;;;;;;;24.50;40.40;;;;;;5085467;28;20018;-62
2022/09/03 01:03:53;;;;;;;;;;;24.50;40.50;;;;;;5110251;28;19990;-62
2022/09/03 01:06:22;;;;;;;;;;;24.50;40.50;;;;;;5110446;28;20014;-62
2022/09/03 01:08:52;;;;;;;;;;;24.50;40.60;;;;;;5087759;28;19926;-62
2022/09/03 01:11:32;;;;;;;;;;;24.50;40.50;;;;;;5110427;28;19965;-62
2022/09/03 01:14:05;;;;;;;;;;;24.50;40.40;;;;;;5092710;28;20370;-62
2022/09/03 01:16:30;;;;;;;;;;;24.50;40.60;;;;;;5092862;28;19920;-62
2022/09/03 01:19:01;;;;;;;;;;;24.50;40.50;;;;;;5105247;28;20414;-62
2022/09/03 01:21:35;;;;;;;;;;;24.50;40.30;;;;;;5107152;28;19939;-62
2022/09/03 01:24:01;;;;;;;;;;;24.60;40.40;;;;;;5111242;28;19912;-62
2022/09/03 01:26:27;;;;;;;;;;;24.60;40.30;;;;;;5110405;28;19973;-62
2022/09/03 01:29:11;;;;;;;;;;;24.60;40.40;;;;;;5097230;28;19935;-62
2022/09/03 01:31:44;;;;;;;;;;;24.60;40.30;;;;;;5096477;28;19911;-62
2022/09/03 01:34:20;;;;;;;;;;;24.50;40.30;;;;;;5111592;28;20380;-62
2022/09/03 01:36:49;;;;;;;;;;;24.50;40.30;;;;;;5110641;28;21393;-62
2022/09/03 01:39:37;;;;;;;;;;;24.50;40.40;;;;;;5114739;28;19957;-62
2022/09/03 01:42:14;;;;;;;;;;;24.50;40.40;;;;;;5066491;28;19920;-62
2022/09/03 01:44:43;;;;;;;;;;;24.50;40.50;;;;;;5104133;28;20252;-62
2022/09/03 01:47:13;;;;;;;;;;;24.40;40.50;;;;;;5112545;28;20371;-62
2022/09/03 01:49:41;;;;;;;;;;;24.40;40.50;;;;;;5107265;27;19911;-62
2022/09/03 01:52:11;;;;;;;;;;;24.40;40.50;;;;;;5090043;28;19998;-62
2022/09/03 01:54:37;;;;;;;;;;;24.40;40.50;;;;;;5096521;28;19919;-62
2022/09/03 01:57:15;;;;;;;;;;;24.40;40.40;;;;;;5109221;28;19912;-62
2022/09/03 01:59:43;;;;;;;;;;;24.40;40.50;;;;;;5095839;28;19912;-62
2022/09/03 02:02:19;;;;;;;;;;;24.40;40.60;;;;;;5095958;28;19969;-62
2022/09/03 02:05:01;;;;;;;;;;;24.40;40.50;;;;;;5096326;28;19958;-62
2022/09/03 02:07:32;;;;;;;;;;;24.40;40.40;;;;;;5100194;28;19918;-62
2022/09/03 02:09:58;;;;;;;;;;;24.40;40.60;;;;;;5117476;28;19946;-62
2022/09/03 02:12:24;;;;;;;;;;;24.40;40.60;;;;;;5095650;28;20291;-62
2022/09/03 02:14:49;;;;;;;;;;;24.30;40.50;;;;;;5114266;28;19934;-62
2022/09/03 02:17:14;;;;;;;;;;;24.30;40.50;;;;;;5113845;28;19916;-62
2022/09/03 02:19:40;;;;;;;;;;;24.30;40.50;;;;;;5114678;28;19912;-62
2022/09/03 02:22:05;;;;;;;;;;;24.30;40.50;;;;;;5113422;28;19966;-62
2022/09/03 02:24:31;;;;;;;;;;;24.40;40.50;;;;;;5104818;28;20042;-62
2022/09/03 02:26:56;;;;;;;;;;;24.40;40.40;;;;;;5095102;28;20387;-62
2022/09/03 02:29:22;;;;;;;;;;;24.50;40.40;;;;;;5108548;28;19916;-62
2022/09/03 02:31:48;;;;;;;;;;;24.50;40.30;;;;;;5095898;28;19998;-62
2022/09/03 02:34:13;;;;;;;;;;;24.40;40.20;;;;;;5113320;28;20282;-62
2022/09/03 02:36:40;;;;;;;;;;;24.40;40.30;;;;;;5113195;28;20446;-62
2022/09/03 02:39:05;;;;;;;;;;;24.40;40.30;;;;;;5093329;28;20260;-62
2022/09/03 02:41:31;;;;;;;;;;;24.40;40.30;;;;;;5107151;28;19912;-62
2022/09/03 02:44:01;;;;;;;;;;;24.50;40.20;;;;;;5113130;28;20507;-62
2022/09/03 02:46:38;;;;;;;;;;;24.50;40.20;;;;;;5090818;28;19915;-62
2022/09/03 02:49:03;;;;;;;;;;;24.40;40.30;;;;;;5112876;28;19958;-62
2022/09/03 02:51:35;;;;;;;;;;;24.40;40.30;;;;;;5113725;28;19954;-62
2022/09/03 02:54:00;;;;;;;;;;;24.40;40.30;;;;;;5112740;28;20466;-62
2022/09/03 02:56:26;;;;;;;;;;;24.40;40.20;;;;;;5111562;28;19923;-62
2022/09/03 02:58:52;;;;;;;;;;;24.40;40.20;;;;;;5106423;28;19923;-62
2022/09/03 03:01:17;;;;;;;;;;;24.30;40.10;;;;;;5112491;28;19916;-62
2022/09/03 03:03:43;;;;;;;;;;;24.30;40.40;;;;;;5110687;28;20009;-62
2022/09/03 03:06:08;;;;;;;;;;;24.30;40.30;;;;;;5112297;28;20260;-62
2022/09/03 03:08:34;;;;;;;;;;;24.30;40.30;;;;;;5108230;28;20273;-62
2022/09/03 03:10:59;;;;;;;;;;;24.30;40.30;;;;;;5112220;28;19980;-62
2022/09/03 03:13:25;;;;;;;;;;;24.30;40.30;;;;;;5113871;28;19931;-62
2022/09/03 03:15:51;;;;;;;;;;;24.20;40.40;;;;;;5103510;28;20653;-62
2022/09/03 03:18:16;;;;;;;;;;;24.30;40.40;;;;;;5093314;28;19912;-62
2022/09/03 03:20:42;;;;;;;;;;;24.20;40.30;;;;;;5104867;28;19912;-62
2022/09/03 03:23:07;;;;;;;;;;;24.20;40.40;;;;;;5094215;28;19911;-62
2022/09/03 03:25:33;;;;;;;;;;;24.20;40.40;;;;;;5112085;28;19916;-62
2022/09/03 03:27:59;;;;;;;;;;;24.20;40.40;;;;;;5113358;28;19912;-62
2022/09/03 03:30:25;;;;;;;;;;;24.20;40.60;;;;;;5111977;28;19912;-62
2022/09/03 03:32:51;;;;;;;;;;;24.20;40.50;;;;;;5093727;28;19919;-62
2022/09/03 03:35:17;;;;;;;;;;;24.20;40.50;;;;;;5086439;28;19970;-62
2022/09/03 03:37:42;;;;;;;;;;;24.20;40.60;;;;;;5105775;28;19997;-62
2022/09/03 03:40:08;;;;;;;;;;;24.20;40.40;;;;;;5111362;28;19969;-62
2022/09/03 03:42:33;;;;;;;;;;;24.20;40.40;;;;;;5111879;28;19957;-62
2022/09/03 03:45:01;;;;;;;;;;;24.20;40.40;;;;;;5112935;28;19911;-62
2022/09/03 03:47:27;;;;;;;;;;;24.20;40.40;;;;;;5111932;28;19915;-62
2022/09/03 03:49:53;;;;;;;;;;;24.20;40.30;;;;;;5112066;28;19926;-62
2022/09/03 03:52:18;;;;;;;;;;;24.30;40.40;;;;;;5107705;28;20279;-62
2022/09/03 03:54:44;;;;;;;;;;;24.20;40.40;;;;;;5110161;28;20297;-62
2022/09/03 03:57:09;;;;;;;;;;;24.20;40.30;;;;;;5105420;28;19920;-62
2022/09/03 03:59:35;;;;;;;;;;;24.20;40.40;;;;;;5094385;28;19930;-62
2022/09/03 04:02:00;;;;;;;;;;;24.20;40.40;;;;;;5110869;28;20443;-62
2022/09/03 04:04:25;;;;;;;;;;;24.20;40.40;;;;;;5112719;28;20387;-62
2022/09/03 04:06:51;;;;;;;;;;;24.20;40.40;;;;;;5090916;28;19915;-62
2022/09/03 04:09:16;;;;;;;;;;;24.20;40.30;;;;;;5099555;28;19936;-62
2022/09/03 04:11:42;;;;;;;;;;;24.30;40.30;;;;;;5104179;28;19956;-62
2022/09/03 04:14:07;;;;;;;;;;;24.20;40.30;;;;;;5109560;28;19915;-62
2022/09/03 04:16:33;;;;;;;;;;;24.20;40.30;;;;;;5110723;28;20385;-62
2022/09/03 04:18:58;;;;;;;;;;;24.20;41.00;;;;;;5112182;28;20355;-62
2022/09/03 04:21:24;;;;;;;;;;;24.20;40.30;;;;;;5110814;28;20006;-62
2022/09/03 04:23:50;;;;;;;;;;;24.10;40.40;;;;;;5110903;28;19920;-62
2022/09/03 04:26:17;;;;;;;;;;;24.10;40.30;;;;;;5110717;28;20443;-62
2022/09/03 04:28:44;;;;;;;;;;;24.10;40.50;;;;;;5101655;28;20553;-62
2022/09/03 04:31:10;;;;;;;;;;;24.00;40.40;;;;;;5109076;28;20259;-61
2022/09/03 04:33:37;;;;;;;;;;;24.00;40.50;;;;;;5111414;28;19919;-62
2022/09/03 04:36:02;;;;;;;;;;;24.00;40.40;;;;;;5111408;28;19912;-61
2022/09/03 04:38:28;;;;;;;;;;;24.10;40.40;;;;;;5111487;28;20139;-62
2022/09/03 04:40:53;;;;;;;;;;;24.20;40.40;;;;;;5109348;28;19915;-62
2022/09/03 04:43:19;;;;;;;;;;;24.10;40.20;;;;;;5112325;28;20321;-62
2022/09/03 04:45:44;;;;;;;;;;;24.20;40.20;;;;;;5110277;28;19916;-62
2022/09/03 04:48:10;;;;;;;;;;;24.20;40.30;;;;;;5104959;28;19911;-62
2022/09/03 04:50:36;;;;;;;;;;;24.10;40.10;;;;;;5109711;28;19922;-62
2022/09/03 04:53:02;;;;;;;;;;;24.20;40.30;;;;;;5110952;28;20006;-62
2022/09/03 04:55:32;;;;;;;;;;;24.10;40.10;;;;;;5110635;28;19915;-62
2022/09/03 04:57:57;;;;;;;;;;;24.20;40.30;;;;;;5110695;28;20397;-62
2022/09/03 05:00:23;;;;;;;;;;;24.10;40.20;;;;;;5110969;28;19998;-62
2022/09/03 05:02:50;;;;;;;;;;;24.20;40.20;;;;;;5108669;28;19920;-62
2022/09/03 05:05:16;;;;;;;;;;;24.10;40.10;;;;;;5114412;28;19928;-61
2022/09/03 05:07:41;;;;;;;;;;;24.10;40.20;;;;;;5076666;28;19908;-62
2022/09/03 05:10:07;;;;;;;;;;;24.20;40.30;;;;;;5115737;28;19908;-62
2022/09/03 05:12:33;;;;;;;;;;;24.10;40.10;;;;;;5114222;28;19916;-62
2022/09/03 05:15:04;;;;;;;;;;;24.10;40.10;;;;;;5106022;28;19924;-62
2022/09/03 05:17:29;;;;;;;;;;;24.10;40.10;;;;;;5101474;28;19942;-62
2022/09/03 05:19:55;;;;;;;;;;;24.00;40.10;;;;;;5070276;28;20395;-62
2022/09/03 05:22:20;;;;;;;;;;;24.00;40.00;;;;;;5074381;28;19912;-62
2022/09/03 05:24:47;;;;;;;;;;;24.10;40.10;;;;;;5094188;28;19924;-62
2022/09/03 05:27:15;;;;;;;;;;;24.10;40.00;;;;;;5095089;28;19912;-62
2022/09/03 05:29:41;;;;;;;;;;;24.00;39.90;;;;;;5091359;28;20201;-62
2022/09/03 05:32:06;;;;;;;;;;;24.00;39.90;;;;;;5093059;28;19934;-62
2022/09/03 05:34:32;;;;;;;;;;;24.10;40.10;;;;;;5076033;28;20311;-62
2022/09/03 05:36:57;;;;;;;;;;;24.00;39.90;;;;;;5080364;28;20348;-62
2022/09/03 05:39:23;;;;;;;;;;;24.00;39.90;;;;;;5075544;28;20303;-61
2022/09/03 05:41:51;;;;;;;;;;;24.00;40.00;;;;;;5093906;28;20307;-62
2022/09/03 05:44:17;;;;;;;;;;;24.00;39.90;;;;;;5094988;28;19908;-62
2022/09/03 05:46:42;;;;;;;;;;;24.00;40.00;;;;;;5092074;28;19961;-62
2022/09/03 05:49:08;;;;;;;;;;;24.00;40.00;;;;;;5093819;28;19970;-62
2022/09/03 05:51:34;;;;;;;;;;;24.00;39.90;;;;;;5094496;28;19908;-62
2022/09/03 05:53:59;;;;;;;;;;;24.00;39.90;;;;;;5068852;28;20430;-62
2022/09/03 05:56:25;;;;;;;;;;;24.00;40.00;;;;;;5093661;28;20291;-62
2022/09/03 05:58:51;;;;;;;;;;;24.00;40.00;;;;;;5065834;28;19935;-62
2022/09/03 06:01:18;;;;;;;;;;;24.00;40.10;;;;;;5092061;28;20386;-62
2022/09/03 06:03:44;;;;;;;;;;;24.00;40.00;;;;;;5092920;28;19965;-62
2022/09/03 06:06:10;;;;;;;;;;;24.00;40.10;;;;;;5073015;28;19924;-62
2022/09/03 06:08:37;;;;;;;;;;;23.90;40.00;;;;;;5090261;28;20392;-62
2022/09/03 06:11:03;;;;;;;;;;;23.90;40.00;;;;;;5091757;28;19913;-62
2022/09/03 06:13:29;;;;;;;;;;;23.90;39.90;;;;;;5093577;28;19912;-62
2022/09/03 06:15:58;;;;;;;;;;;24.00;40.00;;;;;;5110324;28;20252;-62
2022/09/03 06:18:24;;;;;;;;;;;23.90;39.90;;;;;;5113901;28;19961;-62
2022/09/03 06:20:53;;;;;;;;;;;23.90;40.60;;;;;;5076343;28;19923;-61
2022/09/03 06:23:19;;;;;;;;;;;23.90;39.90;;;;;;5113679;28;19916;-62
2022/09/03 06:25:44;;;;;;;;;;;23.90;40.00;;;;;;5112488;28;19915;-62
2022/09/03 06:28:10;;;;;;;;;;;23.90;40.00;;;;;;5103453;28;19916;-62
2022/09/03 06:30:36;;;;;;;;;;;23.90;40.10;;;;;;5114110;28;19953;-62
2022/09/03 06:33:01;;;;;;;;;;;23.80;40.10;;;;;;5107767;28;19912;-61
2022/09/03 06:35:27;;;;;;;;;;;23.90;40.20;;;;;;5114342;28;19965;-62
2022/09/03 06:37:52;;;;;;;;;;;23.80;40.30;;;;;;5112534;28;20379;-62
2022/09/03 06:40:21;;;;;;;;;;;23.80;40.10;;;;;;5113931;28;20786;-62
2022/09/03 06:42:54;;;;;;;;;;;23.90;40.20;;;;;;5112233;28;19926;-62
2022/09/03 06:45:20;;;;;;;;;;;23.80;40.00;;;;;;5107458;28;19915;-62
2022/09/03 06:47:45;;;;;;;;;;;23.80;40.30;;;;;;5112368;28;20010;-62
2022/09/03 06:50:11;;;;;;;;;;;23.80;40.30;;;;;;5095638;28;19914;-62
2022/09/03 06:52:36;;;;;;;;;;;23.80;40.20;;;;;;5111819;28;19912;-61
2022/09/03 06:55:02;;;;;;;;;;;23.80;40.30;;;;;;5113384;28;19966;-61
2022/09/03 06:57:28;;;;;;;;;;;23.70;40.30;;;;;;5111912;28;19916;-62
2022/09/03 06:59:54;;;;;;;;;;;23.70;40.30;;;;;;5109462;28;19927;-62
2022/09/03 07:02:21;;;;;;;;;;;23.80;40.40;;;;;;5103872;28;20295;-61
2022/09/03 07:04:48;;;;;;;;;;;23.80;40.30;;;;;;5112219;28;19938;-62
2022/09/03 07:07:15;;;;;;;;;;;23.80;40.30;;;;;;5093007;28;19919;-62
2022/09/03 07:09:40;;;;;;;;;;;23.80;40.40;;;;;;5107232;28;20414;-61
2022/09/03 07:12:06;;;;;;;;;;;23.80;40.40;;;;;;5109791;28;19912;-61
2022/09/03 07:14:32;;;;;;;;;;;23.80;40.30;;;;;;5113237;28;19942;-61
2022/09/03 07:16:57;;;;;;;;;;;23.80;40.50;;;;;;5109926;28;19919;-62
2022/09/03 07:19:22;;;;;;;;;;;23.80;40.40;;;;;;5106156;28;19937;-62
2022/09/03 07:21:48;;;;;;;;;;;23.80;40.50;;;;;;5106893;28;19912;-62
2022/09/03 07:24:14;;;;;;;;;;;23.70;40.50;;;;;;5107533;28;19935;-62
2022/09/03 07:26:39;;;;;;;;;;;23.80;40.50;;;;;;5091632;28;19922;-62
2022/09/03 07:29:06;;;;;;;;;;;23.80;41.20;;;;;;5112207;28;19915;-62
2022/09/03 07:31:32;;;;;;;;;;;23.80;40.50;;;;;;5111512;28;19947;-62
2022/09/03 07:33:59;;;;;;;;;;;23.80;40.50;;;;;;5099306;28;20507;-62
2022/09/03 07:36:25;;;;;;;;;;;23.80;40.60;;;;;;5105006;28;19912;-62
2022/09/03 07:38:50;;;;;;;;;;;23.80;40.60;;;;;;5087244;28;19916;-61
2022/09/03 07:41:16;;;;;;;;;;;23.80;40.60;;;;;;5106316;27;19918;-62
2022/09/03 07:43:42;;;;;;;;;;;23.80;40.70;;;;;;5085667;28;19918;-62
2022/09/03 07:46:11;;;;;;;;;;;23.80;40.60;;;;;;5112848;28;19915;-62
2022/09/03 07:48:40;;;;;;;;;;;23.80;40.70;;;;;;5108686;28;19912;-62
2022/09/03 07:51:06;;;;;;;;;;;23.80;40.70;;;;;;5071697;28;19959;-61
2022/09/03 07:53:32;;;;;;;;;;;23.80;40.60;;;;;;5106174;28;20406;-62
2022/09/03 07:56:04;;;;;;;;;;;23.80;40.60;;;;;;5088514;28;19916;-62
2022/09/03 07:58:30;;;;;;;;;;;23.80;40.70;;;;;;5111198;28;19960;-62
2022/09/03 08:00:56;;;;;;;;;;;23.80;40.70;;;;;;5108747;28;19964;-62
2022/09/03 08:03:21;;;;;;;;;;;23.80;40.80;;;;;;5109962;28;19912;-62
2022/09/03 08:05:47;;;;;;;;;;;23.80;40.90;;;;;;5108384;28;19957;-62
2022/09/03 08:08:13;;;;;;;;;;;23.80;40.80;;;;;;5107962;28;19919;-62
2022/09/03 08:10:39;;;;;;;;;;;23.80;40.90;;;;;;5095985;28;19912;-62
2022/09/03 08:13:05;;;;;;;;;;;23.80;41.00;;;;;;5109814;28;19926;-62
2022/09/03 08:15:31;;;;;;;;;;;23.80;41.00;;;;;;5107138;28;20382;-61
2022/09/03 08:17:56;;;;;;;;;;;23.70;41.00;;;;;;5089942;28;19916;-62
2022/09/03 08:20:21;;;;;;;;;;;23.70;41.00;;;;;;5111136;28;19951;-62
2022/09/03 08:22:47;;;;;;;;;;;23.70;41.00;;;;;;5106542;28;19919;-62
2022/09/03 08:25:13;;;;;;;;;;;23.80;41.10;;;;;;5111244;28;19908;-62
2022/09/03 08:27:38;;;;;;;;;;;23.70;41.20;;;;;;5112159;28;20440;-62
2022/09/03 08:30:04;;;;;;;;;;;23.60;41.20;;;;;;5104574;28;19911;-62
2022/09/03 08:32:30;;;;;;;;;;;23.70;41.30;;;;;;5109270;28;19908;-62
2022/09/03 08:34:55;;;;;;;;;;;23.70;41.20;;;;;;5108040;28;19916;-62
2022/09/03 08:37:27;;;;;;;;;;;23.70;41.00;;;;;;5087807;28;19916;-62
2022/09/03 08:39:53;;;;;;;;;;;23.80;41.10;;;;;;5110109;28;19934;-62
2022/09/03 08:42:21;;;;;;;;;;;23.70;41.20;;;;;;5103848;28;19916;-62
2022/09/03 08:44:53;;;;;;;;;;;23.60;41.30;;;;;;5093054;28;19912;-62
2022/09/03 08:47:28;;;;;;;;;;;23.70;41.30;;;;;;5108048;28;19922;-62
2022/09/03 08:50:00;;;;;;;;;;;23.70;41.30;;;;;;5095018;28;20462;-62
2022/09/03 08:52:29;;;;;;;;;;;23.80;41.20;;;;;;5100826;28;19911;-62
2022/09/03 08:55:15;;;;;;;;;;;23.80;41.20;;;;;;5103354;28;19927;-62
2022/09/03 08:57:42;;;;;;;;;;;23.80;41.20;;;;;;5088292;28;19916;-62
2022/09/03 09:00:08;;;;;;;;;;;23.80;41.20;;;;;;5091883;28;19966;-62
2022/09/03 09:02:41;;;;;;;;;;;23.80;41.20;;;;;;5107664;28;19946;-62
2022/09/03 09:05:09;;;;;;;;;;;23.80;41.00;;;;;;5092465;28;19947;-62
2022/09/03 09:08:01;;;;;;;;;;;23.80;41.20;;;;;;5111575;28;19920;-62
2022/09/03 09:10:30;;;;;;;;;;;23.80;41.10;;;;;;5096248;28;19924;-62
2022/09/03 09:12:59;;;;;;;;;;;23.80;41.10;;;;;;5106277;28;19968;-62
2022/09/03 09:15:27;;;;;;;;;;;23.80;41.00;;;;;;5105321;28;19923;-62
2022/09/03 09:18:02;;;;;;;;;;;23.90;41.10;;;;;;5106816;28;20358;-62
2022/09/03 09:20:46;;;;;;;;;;;23.80;41.20;;;;;;5090039;28;19912;-62
2022/09/03 09:23:12;;;;;;;;;;;23.90;41.20;;;;;;5109240;28;19912;-62
2022/09/03 09:25:48;;;;;;;;;;;23.90;41.10;;;;;;5092939;28;19915;-62
2022/09/03 09:28:17;;;;;;;;;;;23.90;41.10;;;;;;5082173;28;19920;-62
2022/09/03 09:30:44;;;;;;;;;;;23.90;41.00;;;;;;5090298;28;19912;-62
2022/09/03 09:33:10;;;;;;;;;;;23.90;41.10;;;;;;5088669;28;19984;-62
2022/09/03 09:35:35;;;;;;;;;;;23.80;41.10;;;;;;5110628;28;19990;-62
2022/09/03 09:38:01;;;;;;;;;;;23.90;41.10;;;;;;5110156;28;20387;-62
2022/09/03 09:40:30;;;;;;;;;;;23.90;40.90;;;;;;5111137;28;20370;-62
2022/09/03 09:43:02;;;;;;;;;;;23.90;41.00;;;;;;5090673;28;19916;-62
2022/09/03 09:45:28;;;;;;;;;;;23.80;40.90;;;;;;5104118;28;19920;-62
2022/09/03 09:47:54;;;;;;;;;;;23.80;40.90;;;;;;5112134;28;20419;-62
2022/09/03 09:50:20;;;;;;;;;;;23.90;40.70;;;;;;5080528;28;20064;-62
2022/09/03 09:52:45;;;;;;;;;;;24.00;40.50;;;;;;5113268;28;19958;-62
2022/09/03 09:55:16;;;;;;;;;;;23.90;40.30;;;;;;5111156;28;19984;-62
2022/09/03 09:57:41;;;;;;;;;;;24.00;40.30;;;;;;5106565;28;20485;-63
2022/09/03 10:00:12;;;;;;;;;;;23.90;40.30;;;;;;5105932;28;20042;-62
2022/09/03 10:02:50;;;;;;;;;;;23.80;40.00;;;;;;5112394;28;19949;-62
2022/09/03 10:05:20;;;;;;;;;;;23.80;40.00;;;;;;5094797;28;19973;-62
2022/09/03 10:08:05;;;;;;;;;;;23.80;39.90;;;;;;5089266;28;19919;-62
2022/09/03 10:10:36;;;;;;;;;;;23.80;39.70;;;;;;5112648;28;19912;-62
2022/09/03 10:13:07;;;;;;;;;;;23.80;39.60;;;;;;5097162;28;19907;-62
2022/09/03 10:15:44;;;;;;;;;;;23.90;39.70;;;;;;5109988;28;19935;-62
2022/09/03 10:18:09;;;;;;;;;;;23.90;39.60;;;;;;5109636;28;19927;-62
2022/09/03 10:20:40;;;;;;;;;;;23.90;39.60;;;;;;5113718;28;20011;-62
2022/09/03 10:23:08;;;;;;;;;;;23.90;39.50;;;;;;5104341;28;20358;-62
2022/09/03 10:25:38;;;;;;;;;;;23.90;39.60;;;;;;5106565;28;20359;-61
2022/09/03 10:28:04;;;;;;;;;;;24.00;39.40;;;;;;5115026;28;20440;-61
2022/09/03 10:30:30;;;;;;;;;;;24.00;39.50;;;;;;5094777;28;19915;-61
2022/09/03 10:33:03;;;;;;;;;;;24.00;39.30;;;;;;5112440;28;19968;-61
2022/09/03 10:35:29;;;;;;;;;;;24.00;39.30;;;;;;5094869;28;19913;-61
2022/09/03 10:37:55;;;;;;;;;;;24.00;39.30;;;;;;5106384;28;20016;-62
2022/09/03 10:40:23;;;;;;;;;;;24.10;39.10;;;;;;5111867;28;20394;-61
2022/09/03 10:42:49;;;;;;;;;;;24.10;38.90;;;;;;5112018;28;19931;-61
2022/09/03 10:45:14;;;;;;;;;;;24.10;39.00;;;;;;5113587;28;19930;-61
2022/09/03 10:47:58;;;;;;;;;;;24.10;38.80;;;;;;5109879;27;19938;-61
2022/09/03 10:50:38;;;;;;;;;;;24.10;38.60;;;;;;5094208;28;19999;-61
2022/09/03 10:53:18;;;;;;;;;;;24.10;38.60;;;;;;5076904;28;20399;-61
2022/09/03 10:55:47;;;;;;;;;;;24.20;38.50;;;;;;5093706;28;19991;-61
2022/09/03 10:58:37;;;;;;;;;;;24.20;38.40;;;;;;5078477;28;19912;-62
2022/09/03 11:01:03;;;;;;;;;;;24.20;38.40;;;;;;5062697;28;19912;-61
2022/09/03 11:03:43;;;;;;;;;;;24.20;38.40;;;;;;5113512;28;19950;-61
2022/09/03 11:06:29;;;;;;;;;;;24.10;38.40;;;;;;5094021;28;20187;-61
2022/09/03 11:08:54;;;;;;;;;;;24.10;38.30;;;;;;5110243;28;19969;-61
2022/09/03 11:11:27;;;;;;;;;;;24.20;38.10;;;;;;5112684;28;20287;-60
2022/09/03 11:13:57;;;;;;;;;;;24.20;38.10;;;;;;5092474;28;20378;-61
2022/09/03 11:16:25;;;;;;;;;;;24.20;37.90;;;;;;5056941;28;19920;-61
2022/09/03 11:18:55;;;;;;;;;;;24.20;37.90;;;;;;5039910;28;20402;-61
2022/09/03 11:21:23;;;;;;;;;;;24.30;37.70;;;;;;5073110;28;19916;-61
2022/09/03 11:23:55;;;;;;;;;;;24.20;37.50;;;;;;5069639;28;19934;-61
2022/09/03 11:26:21;;;;;;;;;;;24.20;37.30;;;;;;5093466;28;19908;-61
2022/09/03 11:28:50;;;;;;;;;;;24.20;37.20;;;;;;5075284;28;19954;-61
2022/09/03 11:31:16;;;;;;;;;;;24.30;37.10;;;;;;5073076;28;20355;-61
2022/09/03 11:33:46;;;;;;;;;;;24.30;37.00;;;;;;5090621;28;19931;-62
2022/09/03 11:36:12;;;;;;;;;;;24.30;37.10;;;;;;5090441;28;19939;-62
2022/09/03 11:38:38;;;;;;;;;;;24.30;37.00;;;;;;5092327;28;19916;-61
2022/09/03 11:41:11;;;;;;;;;;;24.30;37.00;;;;;;5092885;28;20296;-62
2022/09/03 11:43:38;;;;;;;;;;;24.30;37.00;;;;;;5058923;28;19908;-61
2022/09/03 11:46:04;;;;;;;;;;;24.20;36.90;;;;;;5075154;28;20425;-61
2022/09/03 11:48:56;;;;;;;;;;;24.20;37.00;;;;;;5093029;28;20087;-61
2022/09/03 11:51:29;;;;;;;;;;;24.20;36.90;;;;;;5082929;28;19912;-61
2022/09/03 11:53:55;;;;;;;;;;;24.20;36.70;;;;;;5090456;28;19912;-61
2022/09/03 11:56:21;;;;;;;;;;;24.20;36.90;;;;;;5090547;28;19912;-61
2022/09/03 11:58:57;;;;;;;;;;;24.20;36.90;;;;;;5092325;28;19916;-61
2022/09/03 12:01:25;;;;;;;;;;;24.20;36.90;;;;;;5054025;28;19951;-60
2022/09/03 12:03:51;;;;;;;;;;;24.30;36.80;;;;;;5077340;28;19908;-62
2022/09/03 12:06:35;;;;;;;;;;;24.20;36.60;;;;;;5085993;28;19912;-61
2022/09/03 12:09:10;;;;;;;;;;;24.30;36.50;;;;;;5087194;28;19975;-61
2022/09/03 12:11:55;;;;;;;;;;;24.30;36.60;;;;;;5092692;28;19908;-61
2022/09/03 12:14:20;;;;;;;;;;;24.30;36.60;;;;;;5096286;28;19916;-61
2022/09/03 12:17:04;;;;;;;;;;;24.20;36.50;;;;;;5112936;28;19919;-61
2022/09/03 12:19:38;;;;;;;;;;;24.30;36.70;;;;;;5094550;28;19926;-61
2022/09/03 12:22:04;;;;;;;;;;;24.30;36.50;;;;;;5111649;28;20344;-62
2022/09/03 12:24:32;;;;;;;;;;;24.30;36.70;;;;;;5111881;28;20051;-61
2022/09/03 12:26:59;;;;;;;;;;;24.40;36.50;;;;;;5103106;28;20472;-61
2022/09/03 12:29:25;;;;;;;;;;;24.40;36.60;;;;;;5112542;28;19927;-61
2022/09/03 12:31:51;;;;;;;;;;;24.50;36.70;;;;;;5094587;28;19919;-61
2022/09/03 12:34:17;;;;;;;;;;;24.60;36.40;;;;;;5113102;28;19912;-61
2022/09/03 12:36:43;;;;;;;;;;;24.60;36.20;;;;;;5112243;28;20007;-61
2022/09/03 12:39:10;;;;;;;;;;;24.70;36.40;;;;;;5111381;28;20130;-61
2022/09/03 12:41:36;;;;;;;;;;;24.70;36.20;;;;;;5108598;28;19961;-61
2022/09/03 12:44:02;;;;;;;;;;;24.80;36.10;;;;;;5094666;28;19912;-61
2022/09/03 12:46:28;;;;;;;;;;;24.80;36.10;;;;;;5105345;28;19919;-61
2022/09/03 12:48:53;;;;;;;;;;;24.90;36.20;;;;;;5092165;28;19915;-62
2022/09/03 12:51:19;;;;;;;;;;;24.90;36.00;;;;;;5091986;28;20314;-62
2022/09/03 12:53:45;;;;;;;;;;;24.90;35.80;;;;;;5091824;28;19915;-61
2022/09/03 12:56:11;;;;;;;;;;;24.90;36.50;;;;;;5109059;28;19912;-61
2022/09/03 12:58:54;;;;;;;;;;;24.90;35.90;;;;;;5109881;28;20006;-61
2022/09/03 13:01:26;;;;;;;;;;;25.00;35.70;;;;;;5111325;28;19923;-61
2022/09/03 13:04:08;;;;;;;;;;;25.00;35.90;;;;;;5077257;28;19907;-61
2022/09/03 13:06:39;;;;;;;;;;;25.00;35.90;;;;;;5112034;28;19915;-61
2022/09/03 13:09:05;;;;;;;;;;;25.00;35.80;;;;;;5111901;28;19912;-62
2022/09/03 13:11:36;;;;;;;;;;;25.00;35.90;;;;;;5111331;28;20394;-61
2022/09/03 13:14:04;;;;;;;;;;;25.10;35.80;;;;;;5110252;28;19912;-61
2022/09/03 13:16:29;;;;;;;;;;;25.10;35.80;;;;;;5091910;28;19916;-61
2022/09/03 13:19:14;;;;;;;;;;;25.10;35.60;;;;;;5091880;28;19961;-61
2022/09/03 13:21:39;;;;;;;;;;;25.10;35.50;;;;;;5053362;28;19924;-61
2022/09/03 13:24:12;;;;;;;;;;;25.10;35.50;;;;;;5074840;28;20071;-61
2022/09/03 13:26:41;;;;;;;;;;;25.10;35.50;;;;;;5062017;28;20007;-61
2022/09/03 13:29:12;;;;;;;;;;;25.10;35.50;;;;;;5066550;28;19919;-61
2022/09/03 13:31:42;;;;;;;;;;;25.10;35.40;;;;;;5087049;28;19912;-61
2022/09/03 13:34:14;;;;;;;;;;;25.10;35.60;;;;;;5079132;28;19909;-61
2022/09/03 13:36:50;;;;;;;;;;;25.10;35.40;;;;;;5080940;28;19921;-62
2022/09/03 13:39:21;;;;;;;;;;;25.10;35.40;;;;;;5071318;28;19919;-62
2022/09/03 13:41:48;;;;;;;;;;;25.10;35.50;;;;;;5076991;28;19919;-62
2022/09/03 13:44:15;;;;;;;;;;;25.10;35.90;;;;;;5071030;28;20284;-61
2022/09/03 13:46:51;;;;;;;;;;;25.10;36.00;;;;;;5076684;28;19912;-62
2022/09/03 13:52:10;;;;;;;;;;;25.20;35.30;;;;;;5079708;28;19919;-61
2022/09/03 13:54:38;;;;;;;;;;;25.20;35.30;;;;;;5076822;28;20364;-61
2022/09/03 13:57:04;;;;;;;;;;;25.20;35.30;;;;;;5077021;28;20015;-61
2022/09/03 13:59:59;;;;;;;;;;;25.20;35.30;;;;;;5095235;28;20395;-61
2022/09/03 14:02:27;;;;;;;;;;;25.20;35.20;;;;;;5072956;28;20295;-61
2022/09/03 14:04:56;;;;;;;;;;;25.20;35.20;;;;;;5095089;28;19938;-61
2022/09/03 14:07:25;;;;;;;;;;;25.20;35.20;;;;;;5072842;28;19916;-61
2022/09/03 14:09:53;;;;;;;;;;;25.20;35.10;;;;;;5076392;28;19912;-61
2022/09/03 14:12:25;;;;;;;;;;;25.20;35.10;;;;;;5076944;28;19912;-61
2022/09/03 14:15:08;;;;;;;;;;;25.30;35.20;;;;;;5102710;28;20014;-61
2022/09/03 14:17:41;;;;;;;;;;;25.30;35.20;;;;;;5095961;28;19920;-61
2022/09/03 14:20:11;;;;;;;;;;;25.30;35.10;;;;;;5079991;28;19908;-61
2022/09/03 14:22:42;;;;;;;;;;;25.30;35.10;;;;;;5096698;28;19907;-61
2022/09/03 14:25:09;;;;;;;;;;;25.30;35.00;;;;;;5096812;28;19907;-61
2022/09/03 14:27:35;;;;;;;;;;;25.30;34.90;;;;;;5094275;28;19916;-61